Queen Isabella — A8IE2 — position and weather

sailwx.info

Track history (hours):
 
Tides and Currents Weather Stations Pressure Air Temp Water Temp Dewpoint Dewpoint Depression Visibility Wind Speed Wind Dir Waves Ship Positions

Queen Isabella

Last reported at 2014-Sep-27 07:04 UTC. Time now 2014-Oct-01 10:12 UTC.
Position N 38°30' W 009°53'.

Length 131 m; draft 7.9 m.

Type: Ship. MMSI: 636090959.

Date/timePositionNaut miles runAvg speedWind from/ knotsBaromVisibWave heightAir tempDewpointWater temp
2014-Sep-27 07:04N 38°30' W 009°53'1013.2
2014-Sep-27 06:20N 38°21' W 009°50'1113.3
2014-Sep-27 05:29N 38°10' W 009°46'1613.1
2014-Sep-27 04:14N 37°53' W 009°42'913.7
2014-Sep-27 03:33N 37°44' W 009°40'1313.1
2014-Sep-27 02:33N 37°31' W 009°36'1312.8
2014-Sep-27 01:33N 37°19' W 009°33'1212.3
2014-Sep-27 00:33N 37°07' W 009°30'  
2014-Sep-22 20:32N 36°54' E 007°47'7 6.3
2014-Sep-22 19:26N 37°01' E 007°49'15712.7
2014-Sep-22 07:06N 37°19' E 004°33'813.8
2014-Sep-22 06:33N 37°20' E 004°24'1413.8
2014-Sep-22 05:33N 37°20' E 004°06'1313.2
2014-Sep-22 04:33N 37°20' E 003°50'1312.9
2014-Sep-22 03:33N 37°20' E 003°33'1313.0
2014-Sep-22 02:33N 37°20' E 003°17'1713.1
2014-Sep-22 01:15N 37°19' E 002°55'913.1
2014-Sep-22 00:33N 37°17' E 002°44'1312.9
2014-Sep-21 23:33N 37°13' E 002°29'4413.2
2014-Sep-21 20:13N 37°03' E 001°35'913.8
2014-Sep-21 19:33N 37°01' E 001°24'1714.0
2014-Sep-21 18:19N 36°58' E 001°02'1013.3
2014-Sep-21 17:32N 36°56' E 000°50'1313.3
2014-Sep-21 16:33N 36°52' E 000°34'1313.2
2014-Sep-21 15:33N 36°50' E 000°18'5513.4
2014-Sep-21 11:28N 36°35' W 000°48'2812.9
2014-Sep-21 09:19N 36°30' W 001°22'19013.5
2014-Sep-20 19:18N 35°60' W 005°14'1215.7
2014-Sep-20 18:34N 35°57' W 005°28'  
Track history (hours):
 
Tides and Currents Weather Stations Pressure Air Temp Water Temp Dewpoint Dewpoint Depression Visibility Wind Speed Wind Dir Waves Ship Positions

Queen Isabella

Last reported at 2014-Sep-27 07:04 UTC. Time now 2014-Oct-01 10:12 UTC.
Position N 38°30' W 009°53'.

Length 131 m; draft 7.9 m.

Type: Ship. MMSI: 636090959.

Date/timePositionNaut miles runAvg speedWind from/ knotsBaromVisibWave heightAir tempDewpointWater temp
2014-Sep-27 07:04N 38°30' W 009°53'1013.2
2014-Sep-27 06:20N 38°21' W 009°50'1113.3
2014-Sep-27 05:29N 38°10' W 009°46'1613.1
2014-Sep-27 04:14N 37°53' W 009°42'913.7
2014-Sep-27 03:33N 37°44' W 009°40'1313.1
2014-Sep-27 02:33N 37°31' W 009°36'1312.8
2014-Sep-27 01:33N 37°19' W 009°33'1212.3
2014-Sep-27 00:33N 37°07' W 009°30'  
2014-Sep-22 20:32N 36°54' E 007°47'7 6.3
2014-Sep-22 19:26N 37°01' E 007°49'15712.7
2014-Sep-22 07:06N 37°19' E 004°33'813.8
2014-Sep-22 06:33N 37°20' E 004°24'1413.8
2014-Sep-22 05:33N 37°20' E 004°06'1313.2
2014-Sep-22 04:33N 37°20' E 003°50'1312.9
2014-Sep-22 03:33N 37°20' E 003°33'1313.0
2014-Sep-22 02:33N 37°20' E 003°17'1713.1
2014-Sep-22 01:15N 37°19' E 002°55'913.1
2014-Sep-22 00:33N 37°17' E 002°44'1312.9
2014-Sep-21 23:33N 37°13' E 002°29'4413.2
2014-Sep-21 20:13N 37°03' E 001°35'913.8
2014-Sep-21 19:33N 37°01' E 001°24'1714.0
2014-Sep-21 18:19N 36°58' E 001°02'1013.3
2014-Sep-21 17:32N 36°56' E 000°50'1313.3
2014-Sep-21 16:33N 36°52' E 000°34'1313.2
2014-Sep-21 15:33N 36°50' E 000°18'5513.4
2014-Sep-21 11:28N 36°35' W 000°48'2812.9
2014-Sep-21 09:19N 36°30' W 001°22'19013.5
2014-Sep-20 19:18N 35°60' W 005°14'1215.7
2014-Sep-20 18:34N 35°57' W 005°28'  

Dump ship's entire track history